createdAt,value
2023-02-28T00:00:38.964Z,5.13
2023-02-28T00:03:06.324Z,5.63
2023-02-28T00:05:34.683Z,6.23
2023-02-28T00:08:01.527Z,5.87
2023-02-28T00:10:31.781Z,7.53
2023-02-28T00:13:05.587Z,4.77
2023-02-28T00:15:33.083Z,4.63
2023-02-28T00:18:00.340Z,5.60
2023-02-28T00:20:27.794Z,6.53
2023-02-28T00:22:55.049Z,7.47
2023-02-28T00:25:25.057Z,5.37
2023-02-28T00:27:52.299Z,5.93
2023-02-28T00:30:24.457Z,5.90
2023-02-28T00:32:52.237Z,6.50
2023-02-28T00:35:19.303Z,7.77
2023-02-28T00:37:46.074Z,7.17
2023-02-28T00:40:13.269Z,6.97
2023-02-28T00:42:41.304Z,10.57
2023-02-28T00:45:11.426Z,11.70
2023-02-28T00:47:38.998Z,12.00
2023-02-28T00:50:06.965Z,10.03
2023-02-28T00:52:33.885Z,11.90
2023-02-28T00:55:00.651Z,12.43
2023-02-28T00:57:27.928Z,7.30
2023-02-28T00:59:57.658Z,8.77
2023-02-28T01:02:25.007Z,7.43
2023-02-28T01:04:53.669Z,6.87
2023-02-28T01:07:20.623Z,5.03
2023-02-28T01:09:47.329Z,4.30
2023-02-28T01:12:14.057Z,6.63
2023-02-28T01:14:41.629Z,6.03
2023-02-28T01:17:08.675Z,4.30
2023-02-28T01:19:35.701Z,7.23
2023-02-28T01:22:07.023Z,5.83
2023-02-28T01:24:35.202Z,5.17
2023-02-28T01:27:02.327Z,6.27
2023-02-28T01:29:29.021Z,4.47
2023-02-28T01:31:55.849Z,5.60
2023-02-28T01:34:22.812Z,3.63
2023-02-28T01:36:49.572Z,5.10
2023-02-28T01:39:16.273Z,5.33
2023-02-28T01:41:44.192Z,8.33
2023-02-28T01:44:48.450Z,6.63
2023-02-28T01:47:16.206Z,5.70
2023-02-28T01:49:43.696Z,6.33
2023-02-28T01:52:19.003Z,7.07
2023-02-28T01:54:52.016Z,6.57
2023-02-28T01:57:24.143Z,5.47
2023-02-28T02:00:00.312Z,7.57
2023-02-28T02:02:29.952Z,5.53
2023-02-28T02:05:05.973Z,4.97
2023-02-28T02:07:36.350Z,6.53
2023-02-28T02:10:28.457Z,8.17
2023-02-28T02:13:34.129Z,7.13
2023-02-28T02:16:19.420Z,7.20
2023-02-28T02:19:15.156Z,6.13
2023-02-28T02:21:47.767Z,7.97
2023-02-28T02:24:42.710Z,7.03
2023-02-28T02:27:27.070Z,7.77
2023-02-28T02:30:29.180Z,7.37
2023-02-28T02:33:26.109Z,7.20
2023-02-28T02:35:56.845Z,6.27
2023-02-28T02:39:01.705Z,6.97
2023-02-28T02:41:50.388Z,6.90
2023-02-28T02:44:41.217Z,7.37
2023-02-28T02:47:13.074Z,9.07
2023-02-28T02:49:45.398Z,7.40
2023-02-28T02:52:15.729Z,10.90
2023-02-28T02:54:46.852Z,8.20
2023-02-28T02:57:23.820Z,7.80
2023-02-28T02:59:53.796Z,10.13
2023-02-28T03:02:23.340Z,9.13
2023-02-28T03:04:55.103Z,9.23
2023-02-28T03:07:22.643Z,10.17
2023-02-28T03:09:54.775Z,9.50
2023-02-28T03:12:24.821Z,7.60
2023-02-28T03:14:58.348Z,11.23
2023-02-28T03:17:27.471Z,13.03
2023-02-28T03:19:58.300Z,11.63
2023-02-28T03:22:50.582Z,21.70
2023-02-28T03:25:23.160Z,26.10
2023-02-28T03:28:11.138Z,15.17
2023-02-28T03:31:00.688Z,15.47
2023-02-28T03:33:40.581Z,16.77
2023-02-28T03:36:20.760Z,24.13
2023-02-28T03:38:55.161Z,13.77
2023-02-28T03:41:25.099Z,14.17
2023-02-28T03:43:59.621Z,10.63
2023-02-28T03:46:31.893Z,12.17
2023-02-28T03:49:23.213Z,14.27
2023-02-28T03:51:52.216Z,11.53
2023-02-28T03:54:33.123Z,12.33
2023-02-28T03:57:28.660Z,10.07
2023-02-28T04:00:01.308Z,8.07
2023-02-28T04:02:28.837Z,7.53
2023-02-28T04:04:55.622Z,11.67
2023-02-28T04:07:22.497Z,11.37
2023-02-28T04:09:49.289Z,15.33
2023-02-28T04:12:16.027Z,15.90
2023-02-28T04:14:43.120Z,9.57
2023-02-28T04:17:10.439Z,10.17
2023-02-28T04:19:37.483Z,14.10
2023-02-28T04:22:04.225Z,14.30
2023-02-28T04:24:31.025Z,14.07
2023-02-28T04:26:59.231Z,10.67
2023-02-28T04:29:33.164Z,14.53
2023-02-28T04:32:01.883Z,12.93
2023-02-28T04:34:30.776Z,14.83
2023-02-28T04:37:12.401Z,13.57
2023-02-28T04:39:41.495Z,12.87
2023-02-28T04:42:08.644Z,15.43
2023-02-28T04:44:35.360Z,16.30
2023-02-28T04:47:02.160Z,19.27
2023-02-28T04:49:29.262Z,13.23
2023-02-28T04:51:56.791Z,15.57
2023-02-28T04:54:24.317Z,13.53
2023-02-28T04:56:51.456Z,13.97
2023-02-28T04:59:18.513Z,13.10
2023-02-28T05:01:50.437Z,16.70
2023-02-28T05:04:17.590Z,14.77
2023-02-28T05:06:44.567Z,15.67
2023-02-28T05:09:14.422Z,21.10
2023-02-28T05:11:41.710Z,19.80
2023-02-28T05:14:13.612Z,20.57
2023-02-28T05:16:40.453Z,17.77
2023-02-28T05:19:07.327Z,24.93
2023-02-28T05:21:37.364Z,21.17
2023-02-28T05:24:07.380Z,21.43
2023-02-28T05:26:42.999Z,19.67
2023-02-28T05:29:10.449Z,24.17
2023-02-28T05:31:37.821Z,22.90
2023-02-28T05:34:07.471Z,19.67
2023-02-28T05:36:34.496Z,21.60
2023-02-28T05:39:01.236Z,23.77
2023-02-28T05:41:28.575Z,22.77
2023-02-28T05:43:55.980Z,19.67
2023-02-28T05:46:22.763Z,21.67
2023-02-28T05:48:50.346Z,23.43
2023-02-28T05:51:18.069Z,19.43
2023-02-28T05:53:45.623Z,21.57
2023-02-28T05:56:12.875Z,21.00
2023-02-28T05:58:39.730Z,18.90
2023-02-28T06:01:23.790Z,19.13
2023-02-28T06:03:50.610Z,26.03
2023-02-28T06:06:17.498Z,3.70
2023-02-28T06:08:45.884Z,19.43
2023-02-28T06:11:12.682Z,23.23
2023-02-28T06:13:40.081Z,22.93
2023-02-28T06:16:08.294Z,24.47
2023-02-28T06:18:35.051Z,23.73
2023-02-28T06:21:01.808Z,23.27
2023-02-28T06:23:28.581Z,20.23
2023-02-28T06:25:59.438Z,20.87
2023-02-28T06:28:26.880Z,18.47
2023-02-28T06:30:53.784Z,20.30
2023-02-28T06:33:20.624Z,19.83
2023-02-28T06:35:53.793Z,22.57
2023-02-28T06:38:20.564Z,22.50
2023-02-28T06:40:57.998Z,23.23
2023-02-28T06:43:25.890Z,17.97
2023-02-28T06:45:56.821Z,22.63
2023-02-28T06:48:24.162Z,21.03
2023-02-28T06:50:51.238Z,22.13
2023-02-28T06:53:17.973Z,21.07
2023-02-28T06:55:45.349Z,22.70
2023-02-28T06:58:20.848Z,19.87
2023-02-28T07:00:54.337Z,20.00
2023-02-28T07:03:21.257Z,22.37
2023-02-28T07:05:47.958Z,17.13
2023-02-28T07:08:15.453Z,33.27
2023-02-28T07:10:42.435Z,16.93
2023-02-28T07:13:10.244Z,16.87
2023-02-28T07:15:41.185Z,30.40
2023-02-28T07:18:09.200Z,33.93
2023-02-28T07:20:36.387Z,34.43
2023-02-28T07:23:03.140Z,29.63
2023-02-28T07:25:30.760Z,35.23
2023-02-28T07:27:58.162Z,28.77
2023-02-28T07:30:25.002Z,25.47
2023-02-28T07:32:51.673Z,25.77
2023-02-28T07:35:18.533Z,25.13
2023-02-28T07:37:45.958Z,28.43
2023-02-28T07:40:13.370Z,21.97
2023-02-28T07:42:42.433Z,22.50
2023-02-28T07:45:12.656Z,27.03
2023-02-28T07:47:40.326Z,20.90
2023-02-28T07:50:09.647Z,21.37
2023-02-28T07:52:37.787Z,26.13
2023-02-28T07:55:06.375Z,10.33
2023-02-28T07:57:36.408Z,27.37
2023-02-28T08:00:07.846Z,14.90
2023-02-28T08:02:38.373Z,19.07
2023-02-28T08:05:06.449Z,15.83
2023-02-28T08:07:34.373Z,23.43
2023-02-28T08:10:01.455Z,26.07
2023-02-28T08:12:28.256Z,16.97
2023-02-28T08:14:55.048Z,20.93
2023-02-28T08:17:21.801Z,24.00
2023-02-28T08:19:48.568Z,28.77
2023-02-28T08:22:16.317Z,23.93
2023-02-28T08:24:44.555Z,26.77
2023-02-28T08:27:11.901Z,25.43
2023-02-28T08:29:40.271Z,24.90
2023-02-28T08:32:17.368Z,30.73
2023-02-28T08:34:50.769Z,23.17
2023-02-28T08:37:18.015Z,30.47
2023-02-28T08:39:44.910Z,29.03
2023-02-28T08:42:11.737Z,27.47
2023-02-28T08:44:38.744Z,23.80
2023-02-28T08:47:05.696Z,22.17
2023-02-28T08:49:33.435Z,26.37
2023-02-28T08:52:00.197Z,16.00
2023-02-28T08:54:27.342Z,25.60
2023-02-28T08:56:54.084Z,30.07
2023-02-28T08:59:20.796Z,24.47
2023-02-28T09:01:48.398Z,26.47
2023-02-28T09:04:18.421Z,28.67
2023-02-28T09:06:47.162Z,30.13
2023-02-28T09:09:13.934Z,26.70
2023-02-28T09:11:40.749Z,23.43
2023-02-28T09:14:07.470Z,26.80
2023-02-28T09:16:35.281Z,19.30
2023-02-28T09:19:02.888Z,28.77
2023-02-28T09:21:30.400Z,23.53
2023-02-28T09:23:57.664Z,14.10
2023-02-28T09:26:30.245Z,20.47
2023-02-28T09:29:03.605Z,25.53
2023-02-28T09:31:30.492Z,23.13
2023-02-28T09:33:58.958Z,27.20
2023-02-28T09:36:41.505Z,25.63
2023-02-28T09:39:11.217Z,24.63
2023-02-28T09:41:48.553Z,29.77
2023-02-28T09:44:33.133Z,27.17
2023-02-28T09:47:19.755Z,25.13
2023-02-28T09:49:48.828Z,25.63
2023-02-28T09:52:22.550Z,24.00
2023-02-28T09:54:49.431Z,24.37
2023-02-28T09:57:30.689Z,13.07
2023-02-28T10:00:13.648Z,20.17
2023-02-28T10:03:02.586Z,24.83
2023-02-28T10:05:37.826Z,19.50
2023-02-28T10:08:09.308Z,25.67
2023-02-28T10:10:39.643Z,25.77
2023-02-28T10:13:19.020Z,27.47
2023-02-28T10:15:49.824Z,21.73
2023-02-28T10:18:25.594Z,27.47
2023-02-28T10:20:53.722Z,27.47
2023-02-28T10:23:35.919Z,23.23
2023-02-28T10:26:13.971Z,13.53
2023-02-28T10:28:41.331Z,24.73
2023-02-28T10:31:15.739Z,19.00
2023-02-28T10:33:42.622Z,20.00
2023-02-28T10:36:16.164Z,26.63
2023-02-28T10:38:43.436Z,33.20
2023-02-28T10:41:13.698Z,17.73
2023-02-28T10:43:42.905Z,18.47
2023-02-28T10:46:09.861Z,8.93
2023-02-28T10:48:46.976Z,19.87
2023-02-28T10:51:16.324Z,24.27
2023-02-28T10:54:02.424Z,24.57
2023-02-28T10:56:31.534Z,22.17
2023-02-28T10:59:02.338Z,18.90
2023-02-28T11:01:46.432Z,23.20
2023-02-28T11:04:34.207Z,20.17
2023-02-28T11:07:04.849Z,16.57
2023-02-28T11:09:39.701Z,25.27
2023-02-28T11:12:22.933Z,15.70
2023-02-28T11:15:00.963Z,17.83
2023-02-28T11:17:31.725Z,20.43
2023-02-28T11:20:04.508Z,14.13
2023-02-28T11:22:36.981Z,15.80
2023-02-28T11:25:11.115Z,22.90
2023-02-28T11:27:38.476Z,27.60
2023-02-28T11:30:23.558Z,22.87
2023-02-28T11:32:51.162Z,21.97
2023-02-28T11:35:39.526Z,22.57
2023-02-28T11:38:14.004Z,22.27
2023-02-28T11:40:54.861Z,19.33
2023-02-28T11:43:42.157Z,19.93
2023-02-28T11:46:28.408Z,24.07
2023-02-28T11:49:14.638Z,17.97
2023-02-28T11:52:07.446Z,22.70
2023-02-28T11:55:03.485Z,21.27
2023-02-28T11:57:50.599Z,19.50
2023-02-28T12:00:29.637Z,19.77
2023-02-28T12:03:07.800Z,19.10
2023-02-28T12:06:06.436Z,20.47
2023-02-28T12:08:48.836Z,23.33
2023-02-28T12:11:18.845Z,21.40
2023-02-28T12:14:07.500Z,23.53
2023-02-28T12:16:57.671Z,21.30
2023-02-28T12:19:34.119Z,16.00
2023-02-28T12:22:14.583Z,16.13
2023-02-28T12:24:53.569Z,13.93
2023-02-28T12:27:25.919Z,16.63
2023-02-28T12:29:56.281Z,20.17
2023-02-28T12:32:31.063Z,20.20
2023-02-28T12:35:15.954Z,17.10
2023-02-28T12:37:44.026Z,17.43
2023-02-28T12:40:16.157Z,20.00
2023-02-28T12:43:11.535Z,21.37
2023-02-28T12:45:53.123Z,21.83
2023-02-28T12:48:38.683Z,18.50
2023-02-28T12:51:07.970Z,15.73
2023-02-28T12:53:59.182Z,16.10
2023-02-28T12:56:34.390Z,22.03
2023-02-28T12:59:13.236Z,23.23
2023-02-28T13:01:39.995Z,19.00
2023-02-28T13:04:31.707Z,19.87
2023-02-28T13:07:29.049Z,18.80
2023-02-28T13:10:01.289Z,23.87
2023-02-28T13:12:28.733Z,20.20
2023-02-28T13:15:12.424Z,23.10
2023-02-28T13:17:42.526Z,27.07
2023-02-28T13:20:21.695Z,21.73
2023-02-28T13:22:52.107Z,31.80
2023-02-28T13:25:34.828Z,18.20
2023-02-28T13:28:05.588Z,21.03
2023-02-28T13:30:58.323Z,25.63
2023-02-28T13:33:27.836Z,28.50
2023-02-28T13:36:17.172Z,26.70
2023-02-28T13:38:56.468Z,25.10
2023-02-28T13:41:32.531Z,21.27
2023-02-28T13:44:13.489Z,19.50
2023-02-28T13:46:49.972Z,19.00
2023-02-28T13:49:34.916Z,25.60
2023-02-28T13:52:07.987Z,20.53
2023-02-28T13:54:46.873Z,21.10
2023-02-28T13:57:19.925Z,21.77
2023-02-28T14:00:02.331Z,22.63
2023-02-28T14:03:25.219Z,20.97
2023-02-28T14:06:28.104Z,14.30
2023-02-28T14:09:05.244Z,19.37
2023-02-28T14:11:38.557Z,19.73
2023-02-28T14:14:07.853Z,22.87
2023-02-28T14:16:40.874Z,20.53
2023-02-28T14:19:20.445Z,21.03
2023-02-28T14:22:16.378Z,19.53
2023-02-28T14:24:43.061Z,26.97
2023-02-28T14:27:38.924Z,24.77
2023-02-28T14:30:16.008Z,19.37
2023-02-28T14:32:47.368Z,21.30
2023-02-28T14:35:39.379Z,25.93
2023-02-28T14:38:14.908Z,18.03
2023-02-28T14:40:42.054Z,32.57
2023-02-28T14:43:27.988Z,33.93
2023-02-28T14:46:05.455Z,31.17
2023-02-28T14:48:32.603Z,37.97
2023-02-28T14:51:02.037Z,28.57
2023-02-28T14:53:31.430Z,26.60
2023-02-28T14:55:58.219Z,23.77
2023-02-28T14:58:31.650Z,18.80
2023-02-28T15:01:05.519Z,26.87
2023-02-28T15:03:36.897Z,24.23
2023-02-28T15:06:19.118Z,22.77
2023-02-28T15:08:46.469Z,24.30
2023-02-28T15:11:28.899Z,26.27
2023-02-28T15:13:59.076Z,16.87
2023-02-28T15:16:39.669Z,22.93
2023-02-28T15:19:16.143Z,23.20
2023-02-28T15:21:48.393Z,22.33
2023-02-28T15:24:24.612Z,28.00
2023-02-28T15:26:56.343Z,27.70
2023-02-28T15:29:25.956Z,24.57
2023-02-28T15:31:58.506Z,27.90
2023-02-28T15:34:44.559Z,32.03
2023-02-28T15:37:37.476Z,27.57
2023-02-28T15:40:16.708Z,25.50
2023-02-28T15:42:47.055Z,31.63
2023-02-28T15:45:38.456Z,53.87
2023-02-28T15:48:14.642Z,55.57
2023-02-28T15:50:41.848Z,73.50
2023-02-28T15:53:22.409Z,29.97
2023-02-28T15:56:06.141Z,26.10
2023-02-28T15:58:36.310Z,31.63
2023-02-28T16:01:09.166Z,54.87
2023-02-28T16:03:47.156Z,31.70
2023-02-28T16:06:23.326Z,25.07
2023-02-28T16:08:52.537Z,30.63
2023-02-28T16:11:21.491Z,31.30
2023-02-28T16:13:49.248Z,25.43
2023-02-28T16:16:22.561Z,24.87
2023-02-28T16:18:50.013Z,24.73
2023-02-28T16:21:17.187Z,24.47
2023-02-28T16:23:44.084Z,23.87
2023-02-28T16:26:21.609Z,31.37
2023-02-28T16:28:49.160Z,30.10
2023-02-28T16:31:17.608Z,27.73
2023-02-28T16:33:46.401Z,21.73
2023-02-28T16:36:18.898Z,28.80
2023-02-28T16:38:46.608Z,27.37
2023-02-28T16:41:19.975Z,25.63
2023-02-28T16:43:50.042Z,30.27
2023-02-28T16:46:18.348Z,27.70
2023-02-28T16:48:46.450Z,28.43
2023-02-28T16:51:14.854Z,27.10
2023-02-28T16:53:42.222Z,27.23
2023-02-28T16:56:23.582Z,29.03
2023-02-28T16:58:52.068Z,28.13
2023-02-28T17:01:22.992Z,31.23
2023-02-28T17:03:50.715Z,33.83
2023-02-28T17:06:22.978Z,32.23
2023-02-28T17:08:53.271Z,29.80
2023-02-28T17:11:20.498Z,29.80
2023-02-28T17:13:47.889Z,28.20
2023-02-28T17:16:32.744Z,32.00
2023-02-28T17:19:02.746Z,25.87
2023-02-28T17:21:30.300Z,32.37
2023-02-28T17:23:57.300Z,29.90
2023-02-28T17:26:25.734Z,29.40
2023-02-28T17:28:56.740Z,29.13
2023-02-28T17:31:24.960Z,31.40
2023-02-28T17:33:52.533Z,35.00
2023-02-28T17:36:26.795Z,32.73
2023-02-28T17:38:56.175Z,30.70
2023-02-28T17:41:23.589Z,29.33
2023-02-28T17:43:52.230Z,29.67
2023-02-28T17:46:22.272Z,30.53
2023-02-28T17:48:49.958Z,33.80
2023-02-28T17:51:18.164Z,33.23
2023-02-28T17:53:45.440Z,35.27
2023-02-28T17:56:24.362Z,32.60
2023-02-28T17:58:55.281Z,32.20
2023-02-28T18:01:23.899Z,30.00
2023-02-28T18:03:50.957Z,29.17
2023-02-28T18:06:22.780Z,30.83
2023-02-28T18:08:52.639Z,34.60
2023-02-28T18:11:21.379Z,30.03
2023-02-28T18:13:50.289Z,31.37
2023-02-28T18:16:18.907Z,31.47
2023-02-28T18:18:46.280Z,30.53
2023-02-28T18:21:15.345Z,33.47
2023-02-28T18:23:48.579Z,33.47
2023-02-28T18:26:17.713Z,35.93
2023-02-28T18:28:45.463Z,31.97
2023-02-28T18:31:16.407Z,34.73
2023-02-28T18:33:44.870Z,38.70
2023-02-28T18:36:11.808Z,35.33
2023-02-28T18:38:39.924Z,35.53
2023-02-28T18:41:08.152Z,36.33
2023-02-28T18:43:39.260Z,39.73
2023-02-28T18:46:09.448Z,37.70
2023-02-28T18:48:38.847Z,35.03
2023-02-28T18:51:18.649Z,40.47
2023-02-28T18:53:46.268Z,39.20
2023-02-28T18:56:16.821Z,39.70
2023-02-28T18:58:43.770Z,44.10
2023-02-28T19:01:30.987Z,42.87
2023-02-28T19:04:00.604Z,44.50
2023-02-28T19:06:29.785Z,40.33
2023-02-28T19:08:58.343Z,43.10
2023-02-28T19:11:26.061Z,44.63
2023-02-28T19:13:53.501Z,38.73
2023-02-28T19:16:21.836Z,44.03
2023-02-28T19:18:49.534Z,41.50
2023-02-28T19:21:18.119Z,43.67
2023-02-28T19:23:45.198Z,42.97
2023-02-28T19:26:18.187Z,44.87
2023-02-28T19:28:45.096Z,35.90
2023-02-28T19:31:13.913Z,37.47
2023-02-28T19:33:41.637Z,41.57
2023-02-28T19:36:11.263Z,36.43
2023-02-28T19:38:39.797Z,38.43
2023-02-28T19:41:09.004Z,38.73
2023-02-28T19:43:36.062Z,40.37
2023-02-28T19:46:03.196Z,42.40
2023-02-28T19:48:30.100Z,46.03
2023-02-28T19:51:06.101Z,42.77
2023-02-28T19:53:34.600Z,42.27
2023-02-28T19:56:01.713Z,43.53
2023-02-28T19:58:28.689Z,43.03
2023-02-28T20:00:55.532Z,46.57
2023-02-28T20:03:24.002Z,48.00
2023-02-28T20:06:01.358Z,45.13
2023-02-28T20:08:28.750Z,43.77
2023-02-28T20:10:55.524Z,44.37
2023-02-28T20:13:28.137Z,38.40
2023-02-28T20:15:55.663Z,40.90
2023-02-28T20:18:22.575Z,44.87
2023-02-28T20:20:49.537Z,39.87
2023-02-28T20:23:16.444Z,44.50
2023-02-28T20:25:43.334Z,44.67
2023-02-28T20:28:10.449Z,43.97
2023-02-28T20:30:39.562Z,46.33
2023-02-28T20:33:06.374Z,43.43
2023-02-28T20:35:34.023Z,44.97
2023-02-28T20:38:00.767Z,41.30
2023-02-28T20:40:27.515Z,39.90
2023-02-28T20:42:55.440Z,42.03
2023-02-28T20:45:22.324Z,44.17
2023-02-28T20:47:50.831Z,43.10
2023-02-28T20:50:18.020Z,41.73
2023-02-28T20:52:44.922Z,44.83
2023-02-28T20:55:13.016Z,43.40
2023-02-28T20:57:40.626Z,42.20
2023-02-28T21:00:09.633Z,41.60
2023-02-28T21:02:37.197Z,46.20
2023-02-28T21:05:04.882Z,43.60
2023-02-28T21:07:31.809Z,42.93
2023-02-28T21:09:58.552Z,40.80
2023-02-28T21:12:25.741Z,43.10
2023-02-28T21:14:52.523Z,42.27
2023-02-28T21:17:19.662Z,39.20
2023-02-28T21:19:46.473Z,40.87
2023-02-28T21:22:13.965Z,39.20
2023-02-28T21:24:41.256Z,38.97
2023-02-28T21:27:08.173Z,29.87
2023-02-28T21:29:35.098Z,34.00
2023-02-28T21:32:02.555Z,30.93
2023-02-28T21:34:29.298Z,36.13
2023-02-28T21:36:56.126Z,34.13
2023-02-28T21:39:26.094Z,29.90
2023-02-28T21:41:53.724Z,32.83
2023-02-28T21:44:22.636Z,34.13
2023-02-28T21:46:56.976Z,31.87
2023-02-28T21:49:25.208Z,34.53
2023-02-28T21:51:52.432Z,33.50
2023-02-28T21:54:19.274Z,29.17
2023-02-28T21:56:46.184Z,28.90
2023-02-28T21:59:12.949Z,31.83
2023-02-28T22:01:43.574Z,29.97
2023-02-28T22:04:21.469Z,32.10
2023-02-28T22:06:59.276Z,25.57
2023-02-28T22:09:27.251Z,30.97
2023-02-28T22:11:55.376Z,28.53
2023-02-28T22:14:22.871Z,28.07
2023-02-28T22:16:52.702Z,30.53
2023-02-28T22:19:21.329Z,28.57
2023-02-28T22:21:48.708Z,27.90
2023-02-28T22:24:17.863Z,29.27
2023-02-28T22:26:45.057Z,29.93
2023-02-28T22:29:11.790Z,27.07
2023-02-28T22:31:38.760Z,28.60
2023-02-28T22:34:08.867Z,25.90
2023-02-28T22:36:36.189Z,31.73
2023-02-28T22:39:04.672Z,28.17
2023-02-28T22:41:31.948Z,27.00
2023-02-28T22:44:02.208Z,27.20
2023-02-28T22:46:31.056Z,27.20
2023-02-28T22:49:01.642Z,26.90
2023-02-28T22:51:29.540Z,29.23
2023-02-28T22:53:58.444Z,24.17
2023-02-28T22:56:28.278Z,30.37
2023-02-28T22:58:57.718Z,27.67
2023-02-28T23:01:26.941Z,28.60
2023-02-28T23:03:54.200Z,34.33
2023-02-28T23:06:29.121Z,26.03
2023-02-28T23:08:59.231Z,26.07
2023-02-28T23:11:30.372Z,27.77
2023-02-28T23:14:00.747Z,30.67
2023-02-28T23:16:30.712Z,26.93
2023-02-28T23:19:00.130Z,25.80
2023-02-28T23:21:27.663Z,35.90
2023-02-28T23:23:54.819Z,28.40
2023-02-28T23:26:21.954Z,27.73
2023-02-28T23:28:49.017Z,26.53
2023-02-28T23:31:16.183Z,27.27
2023-02-28T23:33:43.002Z,25.30
2023-02-28T23:36:12.702Z,25.63
2023-02-28T23:38:41.022Z,29.47
2023-02-28T23:41:12.270Z,27.10
2023-02-28T23:43:41.028Z,28.93
2023-02-28T23:46:09.597Z,28.00
2023-02-28T23:48:36.838Z,27.43
2023-02-28T23:51:09.631Z,30.70
2023-02-28T23:53:38.630Z,28.30
2023-02-28T23:56:07.311Z,27.97
2023-02-28T23:58:35.126Z,26.03
